sensor_id;sensor_type;location;lat;lon;timestamp;temperature;humidity
11639;DHT22;5875;35.940;126.892;2023-09-19T00:00:41;26.60;99.90
11639;DHT22;5875;35.940;126.892;2023-09-19T00:03:09;27.10;99.90
11639;DHT22;5875;35.940;126.892;2023-09-19T00:08:10;27.10;99.90
11639;DHT22;5875;35.940;126.892;2023-09-19T00:10:39;27.50;99.90
11639;DHT22;5875;35.940;126.892;2023-09-19T00:13:09;27.60;99.90
11639;DHT22;5875;35.940;126.892;2023-09-19T00:15:44;27.60;99.90
11639;DHT22;5875;35.940;126.892;2023-09-19T00:18:21;27.40;99.90
11639;DHT22;5875;35.940;126.892;2023-09-19T00:20:48;27.30;99.90
11639;DHT22;5875;35.940;126.892;2023-09-19T00:23:15;27.40;99.90
11639;DHT22;5875;35.940;126.892;2023-09-19T00:25:43;28.00;99.90
11639;DHT22;5875;35.940;126.892;2023-09-19T00:28:10;28.30;99.90
11639;DHT22;5875;35.940;126.892;2023-09-19T00:30:37;28.30;99.90
11639;DHT22;5875;35.940;126.892;2023-09-19T00:33:08;28.80;99.90
11639;DHT22;5875;35.940;126.892;2023-09-19T00:35:37;28.80;99.90
11639;DHT22;5875;35.940;126.892;2023-09-19T00:38:04;28.90;99.90
11639;DHT22;5875;35.940;126.892;2023-09-19T00:40:33;28.90;99.90
11639;DHT22;5875;35.940;126.892;2023-09-19T00:43:01;29.00;99.90
11639;DHT22;5875;35.940;126.892;2023-09-19T00:57:52;29.30;99.90
11639;DHT22;5875;35.940;126.892;2023-09-19T01:00:22;30.70;99.90
11639;DHT22;5875;35.940;126.892;2023-09-19T01:02:50;31.00;99.90
11639;DHT22;5875;35.940;126.892;2023-09-19T01:05:17;31.30;99.90
11639;DHT22;5875;35.940;126.892;2023-09-19T01:07:45;31.50;99.90
11639;DHT22;5875;35.940;126.892;2023-09-19T01:10:17;31.30;99.90
11639;DHT22;5875;35.940;126.892;2023-09-19T01:32:02;31.20;99.90
11639;DHT22;5875;35.940;126.892;2023-09-19T01:37:21;31.50;99.90
11639;DHT22;5875;35.940;126.892;2023-09-19T01:40:04;31.30;99.90
11639;DHT22;5875;35.940;126.892;2023-09-19T01:43:17;31.60;99.90
11639;DHT22;5875;35.940;126.892;2023-09-19T01:46:17;32.80;99.90
11639;DHT22;5875;35.940;126.892;2023-09-19T01:49:22;33.00;99.90
11639;DHT22;5875;35.940;126.892;2023-09-19T01:52:12;33.00;99.90
11639;DHT22;5875;35.940;126.892;2023-09-19T01:54:54;33.40;99.90
11639;DHT22;5875;35.940;126.892;2023-09-19T01:57:51;31.60;99.90
11639;DHT22;5875;35.940;126.892;2023-09-19T02:00:18;31.80;99.90
11639;DHT22;5875;35.940;126.892;2023-09-19T02:02:48;31.70;99.90
11639;DHT22;5875;35.940;126.892;2023-09-19T02:05:25;31.40;99.90
11639;DHT22;5875;35.940;126.892;2023-09-19T02:12:50;31.20;99.90
11639;DHT22;5875;35.940;126.892;2023-09-19T02:15:18;31.30;99.90
11639;DHT22;5875;35.940;126.892;2023-09-19T02:17:45;31.70;99.90
11639;DHT22;5875;35.940;126.892;2023-09-19T02:20:13;32.20;99.90
11639;DHT22;5875;35.940;126.892;2023-09-19T02:22:43;32.30;99.90
11639;DHT22;5875;35.940;126.892;2023-09-19T02:25:10;32.50;99.90
11639;DHT22;5875;35.940;126.892;2023-09-19T02:27:40;32.80;99.90
11639;DHT22;5875;35.940;126.892;2023-09-19T02:30:07;32.90;99.90
11639;DHT22;5875;35.940;126.892;2023-09-19T02:32:34;32.80;99.90
11639;DHT22;5875;35.940;126.892;2023-09-19T02:35:06;32.50;99.90
11639;DHT22;5875;35.940;126.892;2023-09-19T02:37:33;32.60;99.90
11639;DHT22;5875;35.940;126.892;2023-09-19T02:40:01;33.00;99.90
11639;DHT22;5875;35.940;126.892;2023-09-19T02:42:28;33.30;99.90
11639;DHT22;5875;35.940;126.892;2023-09-19T02:44:56;33.20;99.90
11639;DHT22;5875;35.940;126.892;2023-09-19T02:47:23;33.30;99.90
11639;DHT22;5875;35.940;126.892;2023-09-19T02:49:51;32.80;99.90
11639;DHT22;5875;35.940;126.892;2023-09-19T02:52:18;31.50;99.90
11639;DHT22;5875;35.940;126.892;2023-09-19T02:54:45;31.30;99.90
11639;DHT22;5875;35.940;126.892;2023-09-19T02:57:13;30.40;99.90
11639;DHT22;5875;35.940;126.892;2023-09-19T02:59:41;30.30;99.90
11639;DHT22;5875;35.940;126.892;2023-09-19T03:02:09;31.00;99.90
11639;DHT22;5875;35.940;126.892;2023-09-19T03:04:36;31.90;99.90
11639;DHT22;5875;35.940;126.892;2023-09-19T03:07:03;32.30;99.90
11639;DHT22;5875;35.940;126.892;2023-09-19T03:09:30;31.80;99.90
11639;DHT22;5875;35.940;126.892;2023-09-19T03:11:58;32.20;99.90
11639;DHT22;5875;35.940;126.892;2023-09-19T03:14:25;32.30;99.90
11639;DHT22;5875;35.940;126.892;2023-09-19T03:16:56;32.30;99.90
11639;DHT22;5875;35.940;126.892;2023-09-19T03:19:23;31.00;99.90
11639;DHT22;5875;35.940;126.892;2023-09-19T03:21:53;29.80;99.90
11639;DHT22;5875;35.940;126.892;2023-09-19T03:24:20;30.10;99.90
11639;DHT22;5875;35.940;126.892;2023-09-19T03:26:47;30.50;99.90
11639;DHT22;5875;35.940;126.892;2023-09-19T03:29:14;30.70;99.90
11639;DHT22;5875;35.940;126.892;2023-09-19T03:31:43;30.60;99.90
11639;DHT22;5875;35.940;126.892;2023-09-19T03:34:10;30.70;99.90
11639;DHT22;5875;35.940;126.892;2023-09-19T03:36:38;30.60;99.90
11639;DHT22;5875;35.940;126.892;2023-09-19T03:39:05;30.60;99.90
11639;DHT22;5875;35.940;126.892;2023-09-19T03:41:32;30.70;99.90
11639;DHT22;5875;35.940;126.892;2023-09-19T03:44:02;30.70;99.90
11639;DHT22;5875;35.940;126.892;2023-09-19T03:46:30;30.40;99.90
11639;DHT22;5875;35.940;126.892;2023-09-19T03:48:58;30.20;99.90
11639;DHT22;5875;35.940;126.892;2023-09-19T03:51:25;30.30;99.90
11639;DHT22;5875;35.940;126.892;2023-09-19T03:53:52;30.10;99.90
11639;DHT22;5875;35.940;126.892;2023-09-19T03:56:19;30.20;99.90
11639;DHT22;5875;35.940;126.892;2023-09-19T03:58:47;30.30;99.90
11639;DHT22;5875;35.940;126.892;2023-09-19T04:01:14;30.10;99.90
11639;DHT22;5875;35.940;126.892;2023-09-19T04:03:43;30.20;99.90
11639;DHT22;5875;35.940;126.892;2023-09-19T04:06:17;30.20;99.90
11639;DHT22;5875;35.940;126.892;2023-09-19T04:08:44;29.90;99.90
11639;DHT22;5875;35.940;126.892;2023-09-19T04:11:14;29.70;99.90
11639;DHT22;5875;35.940;126.892;2023-09-19T04:13:41;29.70;99.90
11639;DHT22;5875;35.940;126.892;2023-09-19T04:16:08;29.70;99.90
11639;DHT22;5875;35.940;126.892;2023-09-19T04:18:36;29.80;99.90
11639;DHT22;5875;35.940;126.892;2023-09-19T04:21:05;29.80;99.90
11639;DHT22;5875;35.940;126.892;2023-09-19T04:23:32;29.80;99.90
11639;DHT22;5875;35.940;126.892;2023-09-19T04:26:00;29.50;99.90
11639;DHT22;5875;35.940;126.892;2023-09-19T04:28:27;29.60;99.90
11639;DHT22;5875;35.940;126.892;2023-09-19T04:30:54;29.60;99.90
11639;DHT22;5875;35.940;126.892;2023-09-19T04:33:21;29.70;99.90
11639;DHT22;5875;35.940;126.892;2023-09-19T04:35:52;29.80;99.90
11639;DHT22;5875;35.940;126.892;2023-09-19T04:38:22;30.00;99.90
11639;DHT22;5875;35.940;126.892;2023-09-19T04:40:49;29.90;99.90
11639;DHT22;5875;35.940;126.892;2023-09-19T04:43:17;30.00;99.90
11639;DHT22;5875;35.940;126.892;2023-09-19T04:45:44;30.40;99.90
11639;DHT22;5875;35.940;126.892;2023-09-19T04:48:11;30.80;99.90
11639;DHT22;5875;35.940;126.892;2023-09-19T04:50:38;30.80;99.90
11639;DHT22;5875;35.940;126.892;2023-09-19T04:53:05;30.90;99.90
11639;DHT22;5875;35.940;126.892;2023-09-19T04:55:33;31.00;99.90
11639;DHT22;5875;35.940;126.892;2023-09-19T04:58:00;31.00;99.90
11639;DHT22;5875;35.940;126.892;2023-09-19T05:00:28;31.00;99.90
11639;DHT22;5875;35.940;126.892;2023-09-19T05:02:57;30.50;99.90
11639;DHT22;5875;35.940;126.892;2023-09-19T05:05:24;30.30;99.90
11639;DHT22;5875;35.940;126.892;2023-09-19T05:07:52;30.20;99.90
11639;DHT22;5875;35.940;126.892;2023-09-19T05:10:23;30.10;99.90
11639;DHT22;5875;35.940;126.892;2023-09-19T05:12:53;30.00;99.90
11639;DHT22;5875;35.940;126.892;2023-09-19T05:15:20;30.00;99.90
11639;DHT22;5875;35.940;126.892;2023-09-19T05:17:51;30.30;99.90
11639;DHT22;5875;35.940;126.892;2023-09-19T05:20:21;30.50;99.90
11639;DHT22;5875;35.940;126.892;2023-09-19T05:23:18;30.70;99.90
11639;DHT22;5875;35.940;126.892;2023-09-19T05:25:47;30.70;99.90
11639;DHT22;5875;35.940;126.892;2023-09-19T05:28:15;30.80;99.90
11639;DHT22;5875;35.940;126.892;2023-09-19T05:30:42;30.80;99.90
11639;DHT22;5875;35.940;126.892;2023-09-19T05:33:14;30.90;99.90
11639;DHT22;5875;35.940;126.892;2023-09-19T05:35:41;31.10;99.90
11639;DHT22;5875;35.940;126.892;2023-09-19T05:38:08;31.10;99.90
11639;DHT22;5875;35.940;126.892;2023-09-19T05:40:36;30.50;99.90
11639;DHT22;5875;35.940;126.892;2023-09-19T05:43:04;30.70;99.90
11639;DHT22;5875;35.940;126.892;2023-09-19T05:45:32;30.80;99.90
11639;DHT22;5875;35.940;126.892;2023-09-19T05:48:11;30.90;99.90
11639;DHT22;5875;35.940;126.892;2023-09-19T05:50:41;30.80;99.90
11639;DHT22;5875;35.940;126.892;2023-09-19T05:53:09;30.80;99.90
11639;DHT22;5875;35.940;126.892;2023-09-19T05:55:39;30.40;99.90
11639;DHT22;5875;35.940;126.892;2023-09-19T05:58:06;30.70;99.90
11639;DHT22;5875;35.940;126.892;2023-09-19T06:00:35;30.60;99.90
11639;DHT22;5875;35.940;126.892;2023-09-19T06:03:03;30.70;99.90
11639;DHT22;5875;35.940;126.892;2023-09-19T06:05:30;30.70;99.90
11639;DHT22;5875;35.940;126.892;2023-09-19T06:07:58;30.80;99.90
11639;DHT22;5875;35.940;126.892;2023-09-19T06:10:37;30.80;99.90
11639;DHT22;5875;35.940;126.892;2023-09-19T06:13:04;30.70;99.90
11639;DHT22;5875;35.940;126.892;2023-09-19T06:15:32;30.60;99.90
11639;DHT22;5875;35.940;126.892;2023-09-19T06:17:59;30.30;99.90
11639;DHT22;5875;35.940;126.892;2023-09-19T06:20:28;30.00;99.90
11639;DHT22;5875;35.940;126.892;2023-09-19T06:22:56;30.10;99.90
11639;DHT22;5875;35.940;126.892;2023-09-19T06:25:23;30.30;99.90
11639;DHT22;5875;35.940;126.892;2023-09-19T06:27:52;30.20;99.90
11639;DHT22;5875;35.940;126.892;2023-09-19T06:30:22;30.30;99.90
11639;DHT22;5875;35.940;126.892;2023-09-19T06:32:58;30.40;99.90
11639;DHT22;5875;35.940;126.892;2023-09-19T06:35:28;30.50;99.90
11639;DHT22;5875;35.940;126.892;2023-09-19T06:37:55;30.60;99.90
11639;DHT22;5875;35.940;126.892;2023-09-19T06:40:24;30.70;99.90
11639;DHT22;5875;35.940;126.892;2023-09-19T06:42:52;30.70;99.90
11639;DHT22;5875;35.940;126.892;2023-09-19T06:45:22;30.60;99.90
11639;DHT22;5875;35.940;126.892;2023-09-19T06:47:53;30.50;99.90
11639;DHT22;5875;35.940;126.892;2023-09-19T06:50:24;30.60;99.90
11639;DHT22;5875;35.940;126.892;2023-09-19T06:52:55;30.60;99.90
11639;DHT22;5875;35.940;126.892;2023-09-19T06:55:23;30.40;99.90
11639;DHT22;5875;35.940;126.892;2023-09-19T06:57:51;30.30;99.90
11639;DHT22;5875;35.940;126.892;2023-09-19T07:00:20;30.20;99.90
11639;DHT22;5875;35.940;126.892;2023-09-19T07:03:01;30.30;99.90
11639;DHT22;5875;35.940;126.892;2023-09-19T07:05:34;30.30;99.90
11639;DHT22;5875;35.940;126.892;2023-09-19T07:08:06;30.30;99.90
11639;DHT22;5875;35.940;126.892;2023-09-19T07:10:33;30.30;99.90
11639;DHT22;5875;35.940;126.892;2023-09-19T07:15:33;30.20;99.90
11639;DHT22;5875;35.940;126.892;2023-09-19T07:18:03;30.20;99.90
11639;DHT22;5875;35.940;126.892;2023-09-19T07:20:30;30.20;99.90
11639;DHT22;5875;35.940;126.892;2023-09-19T07:22:59;30.10;99.90
11639;DHT22;5875;35.940;126.892;2023-09-19T07:25:27;29.90;99.90
11639;DHT22;5875;35.940;126.892;2023-09-19T07:27:58;29.90;99.90
11639;DHT22;5875;35.940;126.892;2023-09-19T07:30:28;29.80;99.90
11639;DHT22;5875;35.940;126.892;2023-09-19T07:32:55;29.70;99.90
11639;DHT22;5875;35.940;126.892;2023-09-19T07:35:23;29.70;99.90
11639;DHT22;5875;35.940;126.892;2023-09-19T07:37:50;29.70;99.90
11639;DHT22;5875;35.940;126.892;2023-09-19T08:12:43;29.50;99.90
11639;DHT22;5875;35.940;126.892;2023-09-19T08:17:41;28.80;99.90
11639;DHT22;5875;35.940;126.892;2023-09-19T08:20:11;28.80;99.90
11639;DHT22;5875;35.940;126.892;2023-09-19T08:22:52;28.70;99.90
11639;DHT22;5875;35.940;126.892;2023-09-19T08:25:24;28.60;99.90
11639;DHT22;5875;35.940;126.892;2023-09-19T08:27:55;28.60;99.90
11639;DHT22;5875;35.940;126.892;2023-09-19T08:30:24;28.50;99.90
11639;DHT22;5875;35.940;126.892;2023-09-19T08:33:00;28.40;99.90
11639;DHT22;5875;35.940;126.892;2023-09-19T08:35:28;28.40;99.90
11639;DHT22;5875;35.940;126.892;2023-09-19T08:37:55;28.40;99.90
11639;DHT22;5875;35.940;126.892;2023-09-19T08:40:23;28.30;99.90
11639;DHT22;5875;35.940;126.892;2023-09-19T08:42:52;28.30;99.90
11639;DHT22;5875;35.940;126.892;2023-09-19T08:45:21;28.20;99.90
11639;DHT22;5875;35.940;126.892;2023-09-19T08:50:37;28.10;99.90
11639;DHT22;5875;35.940;126.892;2023-09-19T08:53:11;28.00;99.90
11639;DHT22;5875;35.940;126.892;2023-09-19T08:55:41;28.00;99.90
11639;DHT22;5875;35.940;126.892;2023-09-19T08:58:10;28.00;99.90
11639;DHT22;5875;35.940;126.892;2023-09-19T09:00:40;27.90;99.90
11639;DHT22;5875;35.940;126.892;2023-09-19T09:03:10;27.70;99.90
11639;DHT22;5875;35.940;126.892;2023-09-19T09:05:39;27.70;99.90
11639;DHT22;5875;35.940;126.892;2023-09-19T09:08:09;27.60;99.90
11639;DHT22;5875;35.940;126.892;2023-09-19T09:10:38;27.60;99.90
11639;DHT22;5875;35.940;126.892;2023-09-19T09:13:07;27.50;99.90
11639;DHT22;5875;35.940;126.892;2023-09-19T09:15:39;27.50;99.90
11639;DHT22;5875;35.940;126.892;2023-09-19T09:18:07;27.40;99.90
11639;DHT22;5875;35.940;126.892;2023-09-19T09:20:35;27.40;99.90
11639;DHT22;5875;35.940;126.892;2023-09-19T09:23:02;27.30;99.90
11639;DHT22;5875;35.940;126.892;2023-09-19T09:25:54;27.20;99.90
11639;DHT22;5875;35.940;126.892;2023-09-19T09:28:28;27.10;99.90
11639;DHT22;5875;35.940;126.892;2023-09-19T09:30:56;27.00;99.90
11639;DHT22;5875;35.940;126.892;2023-09-19T09:33:24;27.00;99.90
11639;DHT22;5875;35.940;126.892;2023-09-19T09:35:57;26.90;99.90
11639;DHT22;5875;35.940;126.892;2023-09-19T09:38:42;26.80;99.90
11639;DHT22;5875;35.940;126.892;2023-09-19T09:41:10;26.70;99.90
11639;DHT22;5875;35.940;126.892;2023-09-19T09:43:42;26.60;99.90
11639;DHT22;5875;35.940;126.892;2023-09-19T09:46:19;26.60;99.90
11639;DHT22;5875;35.940;126.892;2023-09-19T09:48:56;26.60;99.90
11639;DHT22;5875;35.940;126.892;2023-09-19T09:52:08;26.50;99.90
11639;DHT22;5875;35.940;126.892;2023-09-19T09:55:03;26.40;99.90
11639;DHT22;5875;35.940;126.892;2023-09-19T09:57:32;26.40;99.90
11639;DHT22;5875;35.940;126.892;2023-09-19T10:00:01;26.40;99.90
11639;DHT22;5875;35.940;126.892;2023-09-19T10:02:40;26.30;99.90
11639;DHT22;5875;35.940;126.892;2023-09-19T10:05:19;26.20;99.90
11639;DHT22;5875;35.940;126.892;2023-09-19T10:07:51;26.20;99.90
11639;DHT22;5875;35.940;126.892;2023-09-19T10:13:06;26.10;99.90
11639;DHT22;5875;35.940;126.892;2023-09-19T10:15:35;26.20;99.90
11639;DHT22;5875;35.940;126.892;2023-09-19T10:18:05;26.20;99.90
11639;DHT22;5875;35.940;126.892;2023-09-19T10:20:36;26.10;99.90
11639;DHT22;5875;35.940;126.892;2023-09-19T10:23:11;26.10;99.90
11639;DHT22;5875;35.940;126.892;2023-09-19T10:25:43;26.10;99.90
11639;DHT22;5875;35.940;126.892;2023-09-19T10:28:15;26.10;99.90
11639;DHT22;5875;35.940;126.892;2023-09-19T10:30:44;26.00;99.90
11639;DHT22;5875;35.940;126.892;2023-09-19T10:35:49;26.00;99.90
11639;DHT22;5875;35.940;126.892;2023-09-19T10:38:27;26.00;99.90
11639;DHT22;5875;35.940;126.892;2023-09-19T10:40:56;26.00;99.90
11639;DHT22;5875;35.940;126.892;2023-09-19T10:43:30;25.90;99.90
11639;DHT22;5875;35.940;126.892;2023-09-19T10:46:08;25.90;99.90
11639;DHT22;5875;35.940;126.892;2023-09-19T10:48:39;25.90;99.90
11639;DHT22;5875;35.940;126.892;2023-09-19T10:51:10;25.80;99.90
11639;DHT22;5875;35.940;126.892;2023-09-19T10:53:54;25.90;99.90
11639;DHT22;5875;35.940;126.892;2023-09-19T10:56:47;25.80;99.90
11639;DHT22;5875;35.940;126.892;2023-09-19T10:59:15;25.80;99.90
11639;DHT22;5875;35.940;126.892;2023-09-19T11:04:31;25.70;99.90
11639;DHT22;5875;35.940;126.892;2023-09-19T11:07:05;25.70;99.90
11639;DHT22;5875;35.940;126.892;2023-09-19T11:09:51;25.80;99.90
11639;DHT22;5875;35.940;126.892;2023-09-19T11:26:56;25.50;99.90
11639;DHT22;5875;35.940;126.892;2023-09-19T11:29:35;25.50;99.90
11639;DHT22;5875;35.940;126.892;2023-09-19T11:32:02;25.30;99.90
11639;DHT22;5875;35.940;126.892;2023-09-19T11:34:38;25.20;99.90
11639;DHT22;5875;35.940;126.892;2023-09-19T11:42:45;24.60;99.90
11639;DHT22;5875;35.940;126.892;2023-09-19T11:48:18;24.50;99.90
11639;DHT22;5875;35.940;126.892;2023-09-19T11:50:46;24.60;99.90
11639;DHT22;5875;35.940;126.892;2023-09-19T11:53:14;24.80;99.90
11639;DHT22;5875;35.940;126.892;2023-09-19T11:55:46;24.90;99.90
11639;DHT22;5875;35.940;126.892;2023-09-19T11:58:16;24.90;99.90
11639;DHT22;5875;35.940;126.892;2023-09-19T12:00:45;24.90;99.90
11639;DHT22;5875;35.940;126.892;2023-09-19T12:03:13;24.90;99.90
11639;DHT22;5875;35.940;126.892;2023-09-19T12:05:41;24.90;99.90
11639;DHT22;5875;35.940;126.892;2023-09-19T12:08:08;24.90;99.90
11639;DHT22;5875;35.940;126.892;2023-09-19T12:10:51;24.90;99.90
11639;DHT22;5875;35.940;126.892;2023-09-19T12:13:19;24.80;99.90
11639;DHT22;5875;35.940;126.892;2023-09-19T12:15:47;24.90;99.90
11639;DHT22;5875;35.940;126.892;2023-09-19T12:18:28;25.00;99.90
11639;DHT22;5875;35.940;126.892;2023-09-19T12:20:56;25.20;99.90
11639;DHT22;5875;35.940;126.892;2023-09-19T12:23:25;25.30;99.90
11639;DHT22;5875;35.940;126.892;2023-09-19T12:25:53;25.20;99.90
11639;DHT22;5875;35.940;126.892;2023-09-19T12:28:27;25.20;99.90
11639;DHT22;5875;35.940;126.892;2023-09-19T12:30:57;25.20;99.90
11639;DHT22;5875;35.940;126.892;2023-09-19T12:33:24;25.20;99.90
11639;DHT22;5875;35.940;126.892;2023-09-19T12:35:53;25.30;99.90
11639;DHT22;5875;35.940;126.892;2023-09-19T12:38:28;25.20;99.90
11639;DHT22;5875;35.940;126.892;2023-09-19T12:40:59;25.20;99.90
11639;DHT22;5875;35.940;126.892;2023-09-19T12:43:29;25.20;99.90
11639;DHT22;5875;35.940;126.892;2023-09-19T12:45:59;25.00;99.90
11639;DHT22;5875;35.940;126.892;2023-09-19T12:48:26;24.90;99.90
11639;DHT22;5875;35.940;126.892;2023-09-19T12:51:08;24.90;99.90
11639;DHT22;5875;35.940;126.892;2023-09-19T12:53:44;24.80;99.90
11639;DHT22;5875;35.940;126.892;2023-09-19T12:56:17;24.90;99.90
11639;DHT22;5875;35.940;126.892;2023-09-19T13:01:21;25.00;99.90
11639;DHT22;5875;35.940;126.892;2023-09-19T13:04:16;25.10;99.90
11639;DHT22;5875;35.940;126.892;2023-09-19T13:06:52;25.10;99.90
11639;DHT22;5875;35.940;126.892;2023-09-19T13:09:22;25.10;99.90
11639;DHT22;5875;35.940;126.892;2023-09-19T13:12:00;25.10;99.90
11639;DHT22;5875;35.940;126.892;2023-09-19T13:14:30;25.10;99.90
11639;DHT22;5875;35.940;126.892;2023-09-19T13:17:10;25.10;99.90
11639;DHT22;5875;35.940;126.892;2023-09-19T13:19:46;25.10;99.90
11639;DHT22;5875;35.940;126.892;2023-09-19T13:22:41;25.20;99.90
11639;DHT22;5875;35.940;126.892;2023-09-19T13:25:17;25.20;99.90
11639;DHT22;5875;35.940;126.892;2023-09-19T13:30:13;25.20;99.90
11639;DHT22;5875;35.940;126.892;2023-09-19T13:32:40;25.10;99.90
11639;DHT22;5875;35.940;126.892;2023-09-19T13:35:09;25.10;99.90
11639;DHT22;5875;35.940;126.892;2023-09-19T13:37:39;25.10;99.90
11639;DHT22;5875;35.940;126.892;2023-09-19T13:40:14;25.20;99.90
11639;DHT22;5875;35.940;126.892;2023-09-19T13:42:42;25.10;99.90
11639;DHT22;5875;35.940;126.892;2023-09-19T13:45:09;25.10;99.90
11639;DHT22;5875;35.940;126.892;2023-09-19T13:47:38;25.10;99.90
11639;DHT22;5875;35.940;126.892;2023-09-19T13:50:06;25.10;99.90
11639;DHT22;5875;35.940;126.892;2023-09-19T13:52:34;25.00;99.90
11639;DHT22;5875;35.940;126.892;2023-09-19T13:55:01;25.10;99.90
11639;DHT22;5875;35.940;126.892;2023-09-19T13:57:28;25.10;99.90
11639;DHT22;5875;35.940;126.892;2023-09-19T13:59:56;25.00;99.90
11639;DHT22;5875;35.940;126.892;2023-09-19T14:02:23;25.00;99.90
11639;DHT22;5875;35.940;126.892;2023-09-19T14:04:51;25.00;99.90
11639;DHT22;5875;35.940;126.892;2023-09-19T14:07:19;25.00;99.90
11639;DHT22;5875;35.940;126.892;2023-09-19T14:09:47;25.00;99.90
11639;DHT22;5875;35.940;126.892;2023-09-19T14:12:14;25.10;99.90
11639;DHT22;5875;35.940;126.892;2023-09-19T14:14:42;25.10;99.90
11639;DHT22;5875;35.940;126.892;2023-09-19T14:17:09;25.00;99.90
11639;DHT22;5875;35.940;126.892;2023-09-19T14:19:36;25.00;99.90
11639;DHT22;5875;35.940;126.892;2023-09-19T14:22:04;25.00;99.90
11639;DHT22;5875;35.940;126.892;2023-09-19T14:24:34;25.00;99.90
11639;DHT22;5875;35.940;126.892;2023-09-19T14:27:02;25.00;99.90
11639;DHT22;5875;35.940;126.892;2023-09-19T14:29:30;25.00;99.90
11639;DHT22;5875;35.940;126.892;2023-09-19T14:31:58;25.00;99.90
11639;DHT22;5875;35.940;126.892;2023-09-19T14:34:25;25.10;99.90
11639;DHT22;5875;35.940;126.892;2023-09-19T14:36:52;25.00;99.90
11639;DHT22;5875;35.940;126.892;2023-09-19T14:39:20;25.10;99.90
11639;DHT22;5875;35.940;126.892;2023-09-19T14:41:48;25.00;99.90
11639;DHT22;5875;35.940;126.892;2023-09-19T14:44:15;25.10;99.90
11639;DHT22;5875;35.940;126.892;2023-09-19T14:46:42;25.10;99.90
11639;DHT22;5875;35.940;126.892;2023-09-19T14:49:11;25.20;99.90
11639;DHT22;5875;35.940;126.892;2023-09-19T14:51:39;25.10;99.90
11639;DHT22;5875;35.940;126.892;2023-09-19T14:54:07;25.10;99.90
11639;DHT22;5875;35.940;126.892;2023-09-19T14:56:34;25.20;99.90
11639;DHT22;5875;35.940;126.892;2023-09-19T14:59:02;25.30;99.90
11639;DHT22;5875;35.940;126.892;2023-09-19T15:01:30;25.20;99.90
11639;DHT22;5875;35.940;126.892;2023-09-19T15:03:58;25.00;99.90
11639;DHT22;5875;35.940;126.892;2023-09-19T15:06:27;24.70;99.90
11639;DHT22;5875;35.940;126.892;2023-09-19T15:08:54;24.40;99.90
11639;DHT22;5875;35.940;126.892;2023-09-19T15:11:21;24.10;99.90
11639;DHT22;5875;35.940;126.892;2023-09-19T15:13:51;24.10;99.90
11639;DHT22;5875;35.940;126.892;2023-09-19T15:16:20;24.20;99.90
11639;DHT22;5875;35.940;126.892;2023-09-19T15:18:47;24.40;99.90
11639;DHT22;5875;35.940;126.892;2023-09-19T15:21:15;24.50;99.90
11639;DHT22;5875;35.940;126.892;2023-09-19T15:23:43;24.50;99.90
11639;DHT22;5875;35.940;126.892;2023-09-19T15:26:13;24.30;99.90
11639;DHT22;5875;35.940;126.892;2023-09-19T15:28:46;24.30;99.90
11639;DHT22;5875;35.940;126.892;2023-09-19T15:31:14;24.30;99.90
11639;DHT22;5875;35.940;126.892;2023-09-19T15:33:42;24.20;99.90
11639;DHT22;5875;35.940;126.892;2023-09-19T15:36:16;24.30;99.90
11639;DHT22;5875;35.940;126.892;2023-09-19T15:43:57;24.90;99.90
11639;DHT22;5875;35.940;126.892;2023-09-19T15:46:28;25.00;99.90
11639;DHT22;5875;35.940;126.892;2023-09-19T15:49:01;25.00;99.90
11639;DHT22;5875;35.940;126.892;2023-09-19T15:51:29;24.90;99.90
11639;DHT22;5875;35.940;126.892;2023-09-19T15:53:57;24.70;99.90
11639;DHT22;5875;35.940;126.892;2023-09-19T15:56:26;24.70;99.90
11639;DHT22;5875;35.940;126.892;2023-09-19T15:58:54;24.60;99.90
11639;DHT22;5875;35.940;126.892;2023-09-19T16:01:22;24.80;99.90
11639;DHT22;5875;35.940;126.892;2023-09-19T16:03:51;25.00;99.90
11639;DHT22;5875;35.940;126.892;2023-09-19T16:06:22;25.00;99.90
11639;DHT22;5875;35.940;126.892;2023-09-19T16:08:57;24.90;99.90
11639;DHT22;5875;35.940;126.892;2023-09-19T16:11:26;25.00;99.90
11639;DHT22;5875;35.940;126.892;2023-09-19T16:13:54;25.00;99.90
11639;DHT22;5875;35.940;126.892;2023-09-19T16:16:22;24.90;99.90
11639;DHT22;5875;35.940;126.892;2023-09-19T16:18:51;24.90;99.90
11639;DHT22;5875;35.940;126.892;2023-09-19T16:21:19;24.90;99.90
11639;DHT22;5875;35.940;126.892;2023-09-19T16:23:47;24.90;99.90
11639;DHT22;5875;35.940;126.892;2023-09-19T16:26:17;24.90;99.90
11639;DHT22;5875;35.940;126.892;2023-09-19T16:28:49;24.90;99.90
11639;DHT22;5875;35.940;126.892;2023-09-19T16:31:19;24.80;99.90
11639;DHT22;5875;35.940;126.892;2023-09-19T16:33:47;24.90;99.90
11639;DHT22;5875;35.940;126.892;2023-09-19T16:36:17;24.80;99.90
11639;DHT22;5875;35.940;126.892;2023-09-19T16:38:46;24.80;99.90
11639;DHT22;5875;35.940;126.892;2023-09-19T16:41:17;24.80;99.90
11639;DHT22;5875;35.940;126.892;2023-09-19T16:43:48;24.90;99.90
11639;DHT22;5875;35.940;126.892;2023-09-19T16:46:15;24.80;99.90
11639;DHT22;5875;35.940;126.892;2023-09-19T16:48:47;24.90;99.90
11639;DHT22;5875;35.940;126.892;2023-09-19T16:51:16;24.90;99.90
11639;DHT22;5875;35.940;126.892;2023-09-19T16:53:44;24.90;99.90
11639;DHT22;5875;35.940;126.892;2023-09-19T16:56:19;24.90;99.90
11639;DHT22;5875;35.940;126.892;2023-09-19T16:58:47;24.90;99.90
11639;DHT22;5875;35.940;126.892;2023-09-19T17:01:16;24.90;99.90
11639;DHT22;5875;35.940;126.892;2023-09-19T17:03:46;24.90;99.90
11639;DHT22;5875;35.940;126.892;2023-09-19T17:06:14;24.80;99.90
11639;DHT22;5875;35.940;126.892;2023-09-19T17:08:42;24.80;99.90
11639;DHT22;5875;35.940;126.892;2023-09-19T17:11:14;24.90;99.90
11639;DHT22;5875;35.940;126.892;2023-09-19T17:13:47;24.80;99.90
11639;DHT22;5875;35.940;126.892;2023-09-19T17:16:17;24.80;99.90
11639;DHT22;5875;35.940;126.892;2023-09-19T17:18:56;24.90;99.90
11639;DHT22;5875;35.940;126.892;2023-09-19T17:21:24;25.00;99.90
11639;DHT22;5875;35.940;126.892;2023-09-19T17:23:52;25.00;99.90
11639;DHT22;5875;35.940;126.892;2023-09-19T17:26:20;24.90;99.90
11639;DHT22;5875;35.940;126.892;2023-09-19T17:28:48;24.90;99.90
11639;DHT22;5875;35.940;126.892;2023-09-19T17:31:21;24.90;99.90
11639;DHT22;5875;35.940;126.892;2023-09-19T17:33:49;24.80;99.90
11639;DHT22;5875;35.940;126.892;2023-09-19T17:36:22;24.80;99.90
11639;DHT22;5875;35.940;126.892;2023-09-19T17:38:54;24.90;99.90